Time;durP1;ratioP1;P1;durP2;ratioP2;P2;SDS_P1;SDS_P2;PMS_P1;PMS_P2;Temp;Humidity;BMP_temperature;BMP_pressure;BME280_temperature;BME280_humidity;BME280_pressure;Samples;Min_cycle;Max_cycle;Signal;HPM_P1;HPM_P2
2022/05/31 00:01:13;;;;;;;1.52;1.35;;;;;;;;;;5043388;28;20271;-69
2022/05/31 00:03:41;;;;;;;1.88;1.77;;;;;;;;;;5043235;28;20248;-68
2022/05/31 00:06:08;;;;;;;2.40;1.80;;;;;;;;;;5042824;28;20221;-68
2022/05/31 00:08:34;;;;;;;2.00;1.90;;;;;;;;;;5043011;28;20233;-69
2022/05/31 00:11:00;;;;;;;2.00;1.90;;;;;;;;;;5043092;28;20268;-68
2022/05/31 00:13:27;;;;;;;2.03;1.90;;;;;;;;;;5042859;28;20205;-68
2022/05/31 00:15:53;;;;;;;2.20;2.00;;;;;;;;;;5043021;28;20232;-68
2022/05/31 00:18:20;;;;;;;1.92;1.77;;;;;;;;;;5042544;28;20229;-68
2022/05/31 00:20:47;;;;;;;3.60;1.90;;;;;;;;;;5042879;28;20454;-68
2022/05/31 00:23:14;;;;;;;1.80;1.63;;;;;;;;;;5042660;28;20228;-68
2022/05/31 00:25:40;;;;;;;1.42;1.42;;;;;;;;;;5042699;28;20374;-68
2022/05/31 00:28:07;;;;;;;2.63;2.20;;;;;;;;;;5042350;28;20247;-68
2022/05/31 00:30:33;;;;;;;1.73;1.63;;;;;;;;;;5042862;28;20540;-68
2022/05/31 00:33:00;;;;;;;1.75;1.75;;;;;;;;;;5042718;28;20566;-68
2022/05/31 00:35:27;;;;;;;2.15;2.05;;;;;;;;;;5042659;28;20377;-69
2022/05/31 00:37:55;;;;;;;2.00;1.90;;;;;;;;;;5042362;28;20217;-68
2022/05/31 00:40:23;;;;;;;1.65;1.65;;;;;;;;;;5042451;28;20197;-68
2022/05/31 00:42:53;;;;;;;3.03;2.20;;;;;;;;;;5042412;28;20399;-68
2022/05/31 00:45:20;;;;;;;1.88;1.77;;;;;;;;;;5042566;28;20244;-68
2022/05/31 00:47:46;;;;;;;1.85;1.75;;;;;;;;;;5042471;28;20194;-68
2022/05/31 00:50:17;;;;;;;1.48;1.48;;;;;;;;;;5042355;28;20197;-68
2022/05/31 00:52:46;;;;;;;1.88;1.77;;;;;;;;;;5042472;28;20204;-68
2022/05/31 00:55:16;;;;;;;1.65;1.65;;;;;;;;;;5042122;28;20264;-68
2022/05/31 00:57:46;;;;;;;2.20;2.10;;;;;;;;;;5042151;28;20218;-68
2022/05/31 01:00:15;;;;;;;3.53;1.70;;;;;;;;;;5042447;28;20221;-68
2022/05/31 01:02:42;;;;;;;2.35;2.00;;;;;;;;;;5042212;28;20430;-68
2022/05/31 01:05:09;;;;;;;2.13;2.03;;;;;;;;;;5041897;28;20229;-68
2022/05/31 01:07:36;;;;;;;2.40;2.30;;;;;;;;;;5041946;28;20217;-68
2022/05/31 01:10:04;;;;;;;2.45;1.85;;;;;;;;;;5041749;28;20206;-68
2022/05/31 01:12:33;;;;;;;2.33;2.20;;;;;;;;;;5042366;28;20205;-68
2022/05/31 01:15:00;;;;;;;2.40;1.45;;;;;;;;;;5042160;28;20208;-68
2022/05/31 01:17:26;;;;;;;2.00;1.80;;;;;;;;;;5041914;28;20226;-68
2022/05/31 01:20:00;;;;;;;2.10;2.00;;;;;;;;;;5041918;28;20205;-68
2022/05/31 01:22:33;;;;;;;3.28;1.85;;;;;;;;;;5041966;28;20370;-68
2022/05/31 01:25:02;;;;;;;1.75;1.65;;;;;;;;;;5042180;28;20220;-68
2022/05/31 01:27:40;;;;;;;2.05;1.95;;;;;;;;;;5041981;28;20252;-68
2022/05/31 01:30:08;;;;;;;1.83;1.73;;;;;;;;;;5041894;28;20197;-68
2022/05/31 01:32:37;;;;;;;2.05;1.95;;;;;;;;;;5041930;28;20229;-68
2022/05/31 01:35:07;;;;;;;1.77;1.67;;;;;;;;;;5041718;28;20198;-68
2022/05/31 01:37:38;;;;;;;2.55;2.20;;;;;;;;;;5041595;28;20454;-68
2022/05/31 01:40:07;;;;;;;1.67;1.67;;;;;;;;;;5041784;28;20205;-68
2022/05/31 01:42:35;;;;;;;2.00;1.83;;;;;;;;;;5041642;28;20252;-68
2022/05/31 01:45:03;;;;;;;3.70;1.50;;;;;;;;;;5041632;28;20504;-68
2022/05/31 01:47:30;;;;;;;1.95;1.70;;;;;;;;;;5041178;28;20396;-68
2022/05/31 01:49:56;;;;;;;2.00;1.90;;;;;;;;;;5041656;28;20493;-68
2022/05/31 01:52:23;;;;;;;3.22;2.03;;;;;;;;;;5041646;28;20209;-68
2022/05/31 01:54:51;;;;;;;1.83;1.77;;;;;;;;;;5041850;28;20398;-68
2022/05/31 01:57:18;;;;;;;1.98;1.88;;;;;;;;;;5041306;28;20244;-68
2022/05/31 01:59:47;;;;;;;3.50;2.10;;;;;;;;;;5041590;28;20411;-68
2022/05/31 02:02:15;;;;;;;1.60;1.60;;;;;;;;;;5041948;28;20198;-68
2022/05/31 02:04:41;;;;;;;2.08;1.98;;;;;;;;;;5041536;28;20567;-68
2022/05/31 02:07:11;;;;;;;2.55;2.28;;;;;;;;;;5041599;28;20198;-68
2022/05/31 02:09:38;;;;;;;1.88;1.77;;;;;;;;;;5042096;28;20197;-68
2022/05/31 02:12:06;;;;;;;2.05;1.95;;;;;;;;;;5043031;28;20438;-68
2022/05/31 02:14:32;;;;;;;3.28;1.98;;;;;;;;;;5045213;28;20198;-68
2022/05/31 02:16:59;;;;;;;2.90;1.75;;;;;;;;;;5045150;28;20351;-68
2022/05/31 02:19:27;;;;;;;3.17;1.80;;;;;;;;;;5045105;28;20232;-68
2022/05/31 02:21:54;;;;;;;2.35;2.10;;;;;;;;;;5045196;28;20198;-68
2022/05/31 02:24:21;;;;;;;2.78;1.70;;;;;;;;;;5045515;28;20198;-68
2022/05/31 02:26:47;;;;;;;2.60;2.40;;;;;;;;;;5044805;28;20469;-68
2022/05/31 02:29:17;;;;;;;2.20;2.08;;;;;;;;;;5045066;28;20198;-68
2022/05/31 02:31:43;;;;;;;2.50;2.35;;;;;;;;;;5045053;28;20204;-68
2022/05/31 02:34:10;;;;;;;2.28;2.08;;;;;;;;;;5044810;28;20213;-68
2022/05/31 02:36:36;;;;;;;2.42;2.15;;;;;;;;;;5044667;28;20198;-68
2022/05/31 02:42:06;;;;;;;2.05;1.95;;;;;;;;;;5044242;28;20528;-68
2022/05/31 02:44:34;;;;;;;2.55;2.40;;;;;;;;;;5044590;28;20197;-68
2022/05/31 02:47:01;;;;;;;3.90;2.55;;;;;;;;;;5044144;28;20197;-68
2022/05/31 02:49:27;;;;;;;2.38;2.25;;;;;;;;;;5044889;28;20197;-68
2022/05/31 02:51:53;;;;;;;2.58;2.45;;;;;;;;;;5044677;28;20205;-68
2022/05/31 02:54:20;;;;;;;5.50;2.50;;;;;;;;;;5044436;28;20206;-68
2022/05/31 02:56:47;;;;;;;2.90;2.60;;;;;;;;;;5044265;28;20198;-68
2022/05/31 02:59:14;;;;;;;5.10;2.78;;;;;;;;;;5044232;28;20244;-68
2022/05/31 03:01:42;;;;;;;2.58;2.47;;;;;;;;;;5044428;28;20556;-68
2022/05/31 03:04:08;;;;;;;2.80;2.60;;;;;;;;;;5044080;28;20206;-68
2022/05/31 03:06:35;;;;;;;2.80;2.60;;;;;;;;;;5043910;28;20293;-68
2022/05/31 03:09:01;;;;;;;2.55;2.35;;;;;;;;;;5044318;28;20194;-68
2022/05/31 03:11:30;;;;;;;2.53;2.42;;;;;;;;;;5044050;28;20209;-68
2022/05/31 03:13:58;;;;;;;3.10;2.90;;;;;;;;;;5044507;28;20198;-68
2022/05/31 03:16:24;;;;;;;2.97;2.78;;;;;;;;;;5044043;28;20244;-68
2022/05/31 03:18:54;;;;;;;3.58;3.22;;;;;;;;;;5044110;28;20542;-68
2022/05/31 03:21:22;;;;;;;3.08;2.78;;;;;;;;;;5043989;28;20197;-68
2022/05/31 03:23:50;;;;;;;4.00;2.97;;;;;;;;;;5043936;28;20198;-68
2022/05/31 03:26:17;;;;;;;4.05;2.83;;;;;;;;;;5043599;28;20411;-68
2022/05/31 03:28:44;;;;;;;3.53;2.80;;;;;;;;;;5043976;28;20194;-68
2022/05/31 03:31:10;;;;;;;2.63;2.42;;;;;;;;;;5043939;28;20369;-68
2022/05/31 03:33:37;;;;;;;2.53;2.38;;;;;;;;;;5044088;28;20233;-68
2022/05/31 03:36:05;;;;;;;2.20;2.10;;;;;;;;;;5043440;28;20204;-68
2022/05/31 03:38:31;;;;;;;3.63;2.85;;;;;;;;;;5043436;28;20575;-68
2022/05/31 03:40:58;;;;;;;2.70;2.50;;;;;;;;;;5043832;28;20384;-68
2022/05/31 03:43:25;;;;;;;4.05;2.83;;;;;;;;;;5043683;28;20555;-68
2022/05/31 03:45:51;;;;;;;2.55;2.45;;;;;;;;;;5043597;28;20205;-68
2022/05/31 03:48:19;;;;;;;2.38;2.25;;;;;;;;;;5043145;28;20194;-68
2022/05/31 03:50:45;;;;;;;3.22;2.95;;;;;;;;;;5043405;28;20204;-68
2022/05/31 03:53:14;;;;;;;2.50;2.15;;;;;;;;;;5043295;28;20197;-68
2022/05/31 03:55:42;;;;;;;3.17;2.80;;;;;;;;;;5043222;28;20198;-68
2022/05/31 03:58:08;;;;;;;2.90;2.70;;;;;;;;;;5043114;28;20525;-68
2022/05/31 04:00:34;;;;;;;3.92;2.80;;;;;;;;;;5043316;28;20386;-68
2022/05/31 04:03:01;;;;;;;2.17;2.00;;;;;;;;;;5043264;28;20388;-68
2022/05/31 04:05:27;;;;;;;4.38;2.30;;;;;;;;;;5042900;28;20232;-68
2022/05/31 04:07:54;;;;;;;2.42;2.13;;;;;;;;;;5042714;28;20206;-68
2022/05/31 04:10:22;;;;;;;2.80;2.60;;;;;;;;;;5043231;28;20429;-68
2022/05/31 04:12:48;;;;;;;2.80;2.65;;;;;;;;;;5042933;28;20204;-68
2022/05/31 04:15:15;;;;;;;3.20;2.53;;;;;;;;;;5043008;28;20202;-68
2022/05/31 04:17:41;;;;;;;3.55;2.70;;;;;;;;;;5042547;28;20397;-68
2022/05/31 04:20:08;;;;;;;3.03;2.65;;;;;;;;;;5042865;28;20204;-68
2022/05/31 04:22:34;;;;;;;6.30;2.78;;;;;;;;;;5042693;28;20209;-68
2022/05/31 04:25:02;;;;;;;2.80;2.60;;;;;;;;;;5042997;28;20509;-68
2022/05/31 04:27:29;;;;;;;4.50;3.00;;;;;;;;;;5042668;28;20198;-68
2022/05/31 04:29:56;;;;;;;3.10;2.88;;;;;;;;;;5042621;28;20194;-68
2022/05/31 04:32:23;;;;;;;3.20;3.00;;;;;;;;;;5043306;28;20198;-68
2022/05/31 04:34:49;;;;;;;2.85;2.70;;;;;;;;;;5042129;28;20218;-68
2022/05/31 04:37:15;;;;;;;4.47;2.97;;;;;;;;;;5042521;28;20415;-68
2022/05/31 04:39:42;;;;;;;4.85;3.10;;;;;;;;;;5042440;28;20239;-68
2022/05/31 04:42:08;;;;;;;2.80;2.70;;;;;;;;;;5042604;28;20520;-68
2022/05/31 04:44:36;;;;;;;3.60;3.00;;;;;;;;;;5042539;28;20383;-68
2022/05/31 04:47:03;;;;;;;3.35;3.10;;;;;;;;;;5042281;28;20197;-68
2022/05/31 04:49:29;;;;;;;3.55;3.35;;;;;;;;;;5042409;28;20520;-68
2022/05/31 04:51:55;;;;;;;3.63;3.40;;;;;;;;;;5042693;28;20485;-68
2022/05/31 04:54:24;;;;;;;3.47;3.20;;;;;;;;;;5042545;28;20197;-68
2022/05/31 04:56:51;;;;;;;3.95;3.65;;;;;;;;;;5042252;28;20518;-68
2022/05/31 04:59:18;;;;;;;4.50;3.15;;;;;;;;;;5042157;28;20252;-68
2022/05/31 05:01:46;;;;;;;5.60;3.25;;;;;;;;;;5042307;28;20204;-68
2022/05/31 05:04:13;;;;;;;4.90;4.30;;;;;;;;;;5042138;28;20389;-68
2022/05/31 05:06:39;;;;;;;3.15;3.05;;;;;;;;;;5042063;28;20218;-68
2022/05/31 05:09:06;;;;;;;5.88;3.72;;;;;;;;;;5042503;28;20193;-68
2022/05/31 05:11:32;;;;;;;6.43;3.47;;;;;;;;;;5042213;28;20328;-68
2022/05/31 05:13:59;;;;;;;5.07;3.60;;;;;;;;;;5041794;28;20213;-68
2022/05/31 05:16:26;;;;;;;4.00;3.58;;;;;;;;;;5041564;28;20204;-68
2022/05/31 05:18:53;;;;;;;4.55;3.53;;;;;;;;;;5041947;28;20222;-68
2022/05/31 05:21:20;;;;;;;3.97;3.50;;;;;;;;;;5042105;28;20198;-68
2022/05/31 05:23:46;;;;;;;4.60;3.40;;;;;;;;;;5041840;28;20224;-68
2022/05/31 05:26:13;;;;;;;6.53;3.42;;;;;;;;;;5041537;28;20520;-68
2022/05/31 05:31:27;;;;;;;4.57;3.78;;;;;;;;;;5016420;28;20232;-67
2022/05/31 05:33:55;;;;;;;5.55;3.78;;;;;;;;;;5042094;28;20203;-67
2022/05/31 05:36:22;;;;;;;4.43;3.05;;;;;;;;;;5041598;28;20548;-68
2022/05/31 05:38:49;;;;;;;3.90;3.60;;;;;;;;;;5041894;28;20285;-67
2022/05/31 05:41:16;;;;;;;5.28;4.05;;;;;;;;;;5041677;28;20204;-67
2022/05/31 05:43:42;;;;;;;4.45;3.97;;;;;;;;;;5041306;28;20229;-67
2022/05/31 05:46:13;;;;;;;4.10;3.80;;;;;;;;;;5038583;28;20594;-67
2022/05/31 05:48:39;;;;;;;3.97;3.60;;;;;;;;;;5057880;28;20208;-67
2022/05/31 05:51:12;;;;;;;4.65;3.70;;;;;;;;;;5050565;28;20509;-67
2022/05/31 05:53:38;;;;;;;4.03;3.22;;;;;;;;;;5056814;28;20204;-67
2022/05/31 05:56:05;;;;;;;3.42;3.13;;;;;;;;;;5050364;28;20213;-68
2022/05/31 05:58:31;;;;;;;4.18;3.38;;;;;;;;;;5040605;28;20225;-68
2022/05/31 06:00:58;;;;;;;4.55;2.90;;;;;;;;;;5055195;28;20532;-68
2022/05/31 06:03:28;;;;;;;3.50;2.80;;;;;;;;;;5056105;28;20502;-66
2022/05/31 06:05:55;;;;;;;5.13;3.70;;;;;;;;;;5059250;28;20225;-67
2022/05/31 06:08:24;;;;;;;6.60;3.03;;;;;;;;;;5058475;28;20263;-66
2022/05/31 06:10:55;;;;;;;5.28;2.95;;;;;;;;;;5058090;28;20216;-67
2022/05/31 06:13:24;;;;;;;6.80;3.63;;;;;;;;;;5059350;28;20519;-67
2022/05/31 06:15:53;;;;;;;4.05;2.88;;;;;;;;;;5059233;28;20216;-67
2022/05/31 06:18:22;;;;;;;5.10;2.88;;;;;;;;;;5058769;28;20208;-67
2022/05/31 06:20:51;;;;;;;7.47;3.75;;;;;;;;;;5059477;28;20251;-67
2022/05/31 06:23:17;;;;;;;4.05;3.65;;;;;;;;;;5059219;28;20209;-68
2022/05/31 06:25:45;;;;;;;5.60;3.72;;;;;;;;;;5053437;28;20213;-68
2022/05/31 06:28:12;;;;;;;4.15;3.65;;;;;;;;;;5058634;28;20224;-67
2022/05/31 06:30:38;;;;;;;4.90;3.63;;;;;;;;;;5059462;28;20242;-67
2022/05/31 06:33:05;;;;;;;4.35;3.97;;;;;;;;;;5059992;28;20209;-67
2022/05/31 06:35:31;;;;;;;4.05;3.75;;;;;;;;;;5054816;28;20213;-67
2022/05/31 06:37:58;;;;;;;6.63;3.85;;;;;;;;;;5055684;28;20271;-67
2022/05/31 06:40:24;;;;;;;6.28;3.65;;;;;;;;;;5056203;28;20248;-67
2022/05/31 06:42:52;;;;;;;4.05;3.67;;;;;;;;;;5057827;28;20209;-67
2022/05/31 06:45:18;;;;;;;5.85;3.90;;;;;;;;;;5058734;28;20232;-66
2022/05/31 06:47:44;;;;;;;5.40;4.13;;;;;;;;;;5057689;28;20213;-67
2022/05/31 06:50:12;;;;;;;5.10;3.72;;;;;;;;;;5058179;28;20232;-67
2022/05/31 06:58:19;;;;;;;6.15;3.13;;;;;;;;;;5052610;28;20558;-66
2022/05/31 07:00:46;;;;;;;8.27;3.40;;;;;;;;;;5058614;28;20237;-66
2022/05/31 07:03:12;;;;;;;5.40;3.38;;;;;;;;;;5058331;28;20247;-67
2022/05/31 07:05:40;;;;;;;3.38;3.08;;;;;;;;;;5058329;28;20485;-67
2022/05/31 07:08:06;;;;;;;3.70;3.40;;;;;;;;;;5057776;28;20209;-67
2022/05/31 07:10:33;;;;;;;4.93;3.58;;;;;;;;;;5058307;28;20219;-67
2022/05/31 07:12:59;;;;;;;3.40;3.20;;;;;;;;;;5058469;28;20473;-67
2022/05/31 07:15:28;;;;;;;3.10;2.90;;;;;;;;;;5058628;28;20205;-68
2022/05/31 07:17:54;;;;;;;3.50;2.85;;;;;;;;;;5058482;28;20284;-68
2022/05/31 07:20:21;;;;;;;3.97;3.05;;;;;;;;;;5058468;28;21126;-68
2022/05/31 07:22:47;;;;;;;8.65;3.10;;;;;;;;;;5058445;28;20512;-68
2022/05/31 07:25:13;;;;;;;5.05;3.80;;;;;;;;;;5058274;28;20213;-67
2022/05/31 07:27:40;;;;;;;3.47;3.20;;;;;;;;;;5057503;28;20216;-68
2022/05/31 07:30:07;;;;;;;4.60;2.80;;;;;;;;;;5057960;28;20447;-68
2022/05/31 07:32:36;;;;;;;8.73;3.42;;;;;;;;;;5057706;28;20219;-67
2022/05/31 07:35:02;;;;;;;3.55;3.28;;;;;;;;;;5057994;28;20209;-67
2022/05/31 07:37:29;;;;;;;6.15;3.03;;;;;;;;;;5057205;28;20209;-68
2022/05/31 07:39:55;;;;;;;3.45;3.15;;;;;;;;;;5057725;28;20225;-68
2022/05/31 07:42:21;;;;;;;4.43;2.72;;;;;;;;;;5057821;28;20532;-68
2022/05/31 07:44:47;;;;;;;6.97;2.85;;;;;;;;;;5058332;28;20209;-67
2022/05/31 07:47:14;;;;;;;6.60;3.30;;;;;;;;;;5057121;28;20579;-67
2022/05/31 07:49:41;;;;;;;2.70;2.50;;;;;;;;;;5057466;28;20209;-66
2022/05/31 07:52:08;;;;;;;4.50;2.70;;;;;;;;;;5057675;28;20421;-66
2022/05/31 07:54:35;;;;;;;2.28;2.08;;;;;;;;;;5057281;28;20209;-66
2022/05/31 07:57:03;;;;;;;4.88;2.45;;;;;;;;;;5056876;28;20209;-67
2022/05/31 07:59:31;;;;;;;2.28;1.88;;;;;;;;;;5055515;28;20232;-67
2022/05/31 08:02:01;;;;;;;5.68;2.35;;;;;;;;;;5054836;28;20216;-67
2022/05/31 08:04:27;;;;;;;4.53;1.63;;;;;;;;;;5049672;28;20221;-67
2022/05/31 08:07:04;;;;;;;3.38;1.80;;;;;;;;;;5051956;28;20226;-67
2022/05/31 08:09:30;;;;;;;2.55;1.50;;;;;;;;;;5036069;28;20216;-67
2022/05/31 08:11:57;;;;;;;2.85;1.83;;;;;;;;;;5053582;28;20232;-67
2022/05/31 08:14:23;;;;;;;2.17;1.58;;;;;;;;;;5056912;28;20209;-67
2022/05/31 08:16:49;;;;;;;1.77;1.67;;;;;;;;;;5056690;28;20539;-68
2022/05/31 08:19:15;;;;;;;1.77;1.67;;;;;;;;;;5056809;28;20224;-67
2022/05/31 08:21:42;;;;;;;4.38;1.63;;;;;;;;;;5057644;28;20213;-67
2022/05/31 08:24:11;;;;;;;4.65;1.80;;;;;;;;;;5056880;28;20468;-68
2022/05/31 08:26:38;;;;;;;2.63;1.50;;;;;;;;;;5056504;28;20209;-67
2022/05/31 08:29:04;;;;;;;2.75;1.40;;;;;;;;;;5056497;28;20336;-67
2022/05/31 08:31:32;;;;;;;1.50;1.40;;;;;;;;;;5056736;28;20209;-67
2022/05/31 08:33:58;;;;;;;1.42;1.30;;;;;;;;;;5056617;28;20216;-68
2022/05/31 08:36:25;;;;;;;2.28;1.45;;;;;;;;;;5056258;28;20213;-68
2022/05/31 08:38:51;;;;;;;1.52;1.42;;;;;;;;;;5056513;28;20246;-68
2022/05/31 08:41:27;;;;;;;2.63;1.20;;;;;;;;;;5056962;28;20405;-68
2022/05/31 08:44:04;;;;;;;1.23;1.15;;;;;;;;;;5057097;28;20208;-67
2022/05/31 08:46:43;;;;;;;1.40;1.30;;;;;;;;;;5056437;28;20209;-67
2022/05/31 08:49:11;;;;;;;3.70;1.40;;;;;;;;;;5056876;28;20217;-67
2022/05/31 08:51:55;;;;;;;1.65;1.40;;;;;;;;;;5057147;28;20213;-68
2022/05/31 08:57:13;;;;;;;3.20;1.10;;;;;;;;;;5036368;28;20247;-69
2022/05/31 08:59:43;;;;;;;1.30;1.20;;;;;;;;;;5036407;28;20257;-69
2022/05/31 09:02:14;;;;;;;3.00;1.38;;;;;;;;;;5036657;28;20235;-69
2022/05/31 09:04:43;;;;;;;4.75;1.38;;;;;;;;;;5036336;28;20550;-69
2022/05/31 09:07:12;;;;;;;1.00;1.00;;;;;;;;;;5036144;28;20209;-69
2022/05/31 09:09:40;;;;;;;1.17;1.17;;;;;;;;;;5036303;28;20366;-70
2022/05/31 09:12:10;;;;;;;1.20;1.17;;;;;;;;;;5036461;28;20285;-70
2022/05/31 09:14:42;;;;;;;0.95;0.95;;;;;;;;;;5036375;28;20217;-70
2022/05/31 09:17:13;;;;;;;4.38;1.15;;;;;;;;;;5035847;28;20511;-70
2022/05/31 09:19:42;;;;;;;1.58;1.30;;;;;;;;;;5036223;28;20249;-70
2022/05/31 09:22:09;;;;;;;1.13;1.13;;;;;;;;;;5039937;28;20209;-69
2022/05/31 09:24:38;;;;;;;1.23;1.13;;;;;;;;;;5050528;28;20220;-67
2022/05/31 09:27:07;;;;;;;1.13;1.02;;;;;;;;;;5059868;28;20216;-69
2022/05/31 09:29:37;;;;;;;1.40;0.95;;;;;;;;;;5060224;28;20520;-67
2022/05/31 09:32:10;;;;;;;1.08;1.08;;;;;;;;;;5060283;28;20213;-68
2022/05/31 09:34:44;;;;;;;2.08;0.93;;;;;;;;;;5060472;28;20230;-69
2022/05/31 09:37:16;;;;;;;2.20;1.00;;;;;;;;;;5059605;28;20215;-68
2022/05/31 09:39:47;;;;;;;1.77;0.98;;;;;;;;;;5060028;28;20764;-68
2022/05/31 09:42:17;;;;;;;1.27;1.10;;;;;;;;;;5060371;28;20520;-68
2022/05/31 09:44:48;;;;;;;3.45;1.10;;;;;;;;;;5060313;28;20212;-68
2022/05/31 09:47:17;;;;;;;3.90;1.15;;;;;;;;;;5058698;28;20211;-67
2022/05/31 09:49:45;;;;;;;0.98;0.93;;;;;;;;;;5060075;28;20426;-69
2022/05/31 09:52:13;;;;;;;1.08;1.00;;;;;;;;;;5059816;28;20201;-69
2022/05/31 09:57:42;;;;;;;0.95;0.95;;;;;;;;;;5039264;28;20216;-69
2022/05/31 10:00:15;;;;;;;2.50;0.95;;;;;;;;;;5039705;28;20252;-69
2022/05/31 10:02:43;;;;;;;1.25;1.08;;;;;;;;;;5039588;28;20244;-69
2022/05/31 10:05:14;;;;;;;1.95;1.00;;;;;;;;;;5039577;28;20688;-70
2022/05/31 10:07:41;;;;;;;0.85;0.85;;;;;;;;;;5038898;28;20567;-69
2022/05/31 10:10:09;;;;;;;3.67;1.20;;;;;;;;;;5040219;28;20205;-69
2022/05/31 10:12:35;;;;;;;6.38;5.05;;;;;;;;;;5051022;28;20404;-69
2022/05/31 10:15:03;;;;;;;4.88;3.80;;;;;;;;;;5059545;28;20216;-69
2022/05/31 10:17:37;;;;;;;2.58;0.90;;;;;;;;;;5058927;28;20408;-69
2022/05/31 10:20:12;;;;;;;1.25;1.02;;;;;;;;;;5059335;28;20429;-68
2022/05/31 10:22:39;;;;;;;2.53;0.80;;;;;;;;;;5059414;28;20396;-68
2022/05/31 10:25:19;;;;;;;1.42;1.10;;;;;;;;;;5059078;28;20205;-69
2022/05/31 10:27:45;;;;;;;1.52;1.00;;;;;;;;;;5059007;28;20208;-69
2022/05/31 10:30:17;;;;;;;1.85;0.93;;;;;;;;;;5058832;28;20211;-69
2022/05/31 10:32:47;;;;;;;0.82;0.82;;;;;;;;;;5058816;28;20208;-69
2022/05/31 10:35:16;;;;;;;5.88;1.30;;;;;;;;;;5059322;28;20231;-69
2022/05/31 10:37:55;;;;;;;1.73;1.00;;;;;;;;;;5058515;28;20224;-69
2022/05/31 10:40:23;;;;;;;4.00;0.88;;;;;;;;;;5058675;28;20229;-70
2022/05/31 10:42:52;;;;;;;4.03;1.08;;;;;;;;;;5058995;28;20258;-70
2022/05/31 10:45:20;;;;;;;4.95;1.30;;;;;;;;;;5052821;28;20204;-69
2022/05/31 10:47:47;;;;;;;2.25;1.00;;;;;;;;;;5052732;28;20528;-70
2022/05/31 10:50:15;;;;;;;2.55;1.08;;;;;;;;;;5059035;28;20209;-70
2022/05/31 10:52:46;;;;;;;1.65;1.02;;;;;;;;;;5059096;28;20385;-71
2022/05/31 10:55:22;;;;;;;5.40;1.13;;;;;;;;;;5055720;28;20204;-70
2022/05/31 10:57:53;;;;;;;1.55;0.88;;;;;;;;;;5052330;28;20218;-70
2022/05/31 11:00:21;;;;;;;2.72;0.80;;;;;;;;;;5058292;28;20231;-70
2022/05/31 11:03:00;;;;;;;2.92;0.90;;;;;;;;;;5058417;28;20270;-69
2022/05/31 11:05:33;;;;;;;2.22;1.00;;;;;;;;;;5058368;28;20246;-69
2022/05/31 11:13:39;;;;;;;2.53;1.10;;;;;;;;;;5058619;28;20208;-69
2022/05/31 11:16:08;;;;;;;2.28;1.20;;;;;;;;;;5058415;28;20403;-70
2022/05/31 11:18:47;;;;;;;0.90;0.90;;;;;;;;;;5058537;28;20212;-70
2022/05/31 11:21:22;;;;;;;1.23;1.13;;;;;;;;;;5057827;28;20578;-69
2022/05/31 11:23:54;;;;;;;5.47;1.88;;;;;;;;;;5058165;28;20207;-69
2022/05/31 11:26:29;;;;;;;2.60;1.45;;;;;;;;;;5057496;28;20466;-69
2022/05/31 11:29:03;;;;;;;5.25;1.10;;;;;;;;;;5057851;28;20212;-69
2022/05/31 11:31:35;;;;;;;1.52;0.98;;;;;;;;;;5057904;28;20212;-69
2022/05/31 11:34:05;;;;;;;2.17;0.90;;;;;;;;;;5058301;28;20209;-68
2022/05/31 11:36:37;;;;;;;2.80;1.10;;;;;;;;;;5057674;28;20472;-70
2022/05/31 11:39:26;;;;;;;1.15;1.13;;;;;;;;;;5057688;28;20208;-70
2022/05/31 11:41:59;;;;;;;4.30;1.40;;;;;;;;;;5057925;28;20228;-70
2022/05/31 11:44:42;;;;;;;3.88;1.30;;;;;;;;;;5056630;28;20209;-68
2022/05/31 11:47:15;;;;;;;1.60;1.48;;;;;;;;;;5057056;28;20208;-68
2022/05/31 11:49:45;;;;;;;3.40;1.40;;;;;;;;;;5057671;28;20213;-68
2022/05/31 11:52:22;;;;;;;1.65;1.55;;;;;;;;;;5057760;28;20410;-68
2022/05/31 11:57:39;;;;;;;2.65;1.63;;;;;;;;;;5056570;28;20275;-68
2022/05/31 12:00:07;;;;;;;2.13;1.10;;;;;;;;;;5056918;28;20219;-68
2022/05/31 12:02:35;;;;;;;4.47;1.52;;;;;;;;;;5057691;28;20209;-68
2022/05/31 12:05:12;;;;;;;2.95;1.50;;;;;;;;;;5057115;28;20236;-67
2022/05/31 12:07:42;;;;;;;5.13;1.35;;;;;;;;;;5056637;28;20215;-68
2022/05/31 12:10:12;;;;;;;4.10;1.52;;;;;;;;;;5057195;28;20208;-67
2022/05/31 12:12:39;;;;;;;1.15;1.05;;;;;;;;;;5057146;28;20520;-68
2022/05/31 12:15:08;;;;;;;2.08;1.50;;;;;;;;;;5057190;28;20231;-68
2022/05/31 12:17:39;;;;;;;1.98;0.98;;;;;;;;;;5056174;28;20208;-70
2022/05/31 12:20:10;;;;;;;2.47;1.42;;;;;;;;;;5056858;28;20209;-69
2022/05/31 12:22:41;;;;;;;1.60;1.35;;;;;;;;;;5056860;28;20209;-68
2022/05/31 12:25:11;;;;;;;1.67;1.40;;;;;;;;;;5056807;28;20208;-70
2022/05/31 12:27:40;;;;;;;3.15;1.40;;;;;;;;;;5056078;28;20208;-69
2022/05/31 12:30:08;;;;;;;1.58;1.20;;;;;;;;;;5056328;28;20219;-69
2022/05/31 12:32:44;;;;;;;4.35;1.30;;;;;;;;;;5056783;28;20209;-69
2022/05/31 12:35:12;;;;;;;1.95;0.90;;;;;;;;;;5056761;28;20250;-69
2022/05/31 12:37:59;;;;;;;3.25;1.08;;;;;;;;;;5055983;28;20209;-70
2022/05/31 12:40:38;;;;;;;2.05;1.23;;;;;;;;;;5052943;28;20213;-70
2022/05/31 12:43:05;;;;;;;3.90;1.30;;;;;;;;;;5056651;28;20798;-70
2022/05/31 12:45:40;;;;;;;5.90;1.25;;;;;;;;;;5056621;28;20385;-70
2022/05/31 12:48:27;;;;;;;1.10;0.95;;;;;;;;;;5056133;28;20208;-70
2022/05/31 12:51:10;;;;;;;1.60;0.93;;;;;;;;;;5052789;28;20208;-69
2022/05/31 12:53:57;;;;;;;3.15;1.35;;;;;;;;;;5056404;28;20209;-70
2022/05/31 12:56:39;;;;;;;1.02;0.80;;;;;;;;;;5055608;28;20536;-70
2022/05/31 12:59:06;;;;;;;2.00;1.10;;;;;;;;;;5055393;28;20204;-69
2022/05/31 13:01:47;;;;;;;3.10;1.20;;;;;;;;;;5056256;28;20232;-70
2022/05/31 13:04:25;;;;;;;3.13;1.00;;;;;;;;;;5054472;28;20216;-70
2022/05/31 13:07:04;;;;;;;3.17;1.20;;;;;;;;;;5055777;28;20248;-69
2022/05/31 13:09:35;;;;;;;1.20;1.00;;;;;;;;;;5055419;28;20208;-70
2022/05/31 13:20:20;;;;;;;0.80;0.80;;;;;;;;;;5056000;28;20242;-70
2022/05/31 13:22:48;;;;;;;1.92;1.08;;;;;;;;;;5056224;28;20580;-70
2022/05/31 13:25:17;;;;;;;2.63;1.13;;;;;;;;;;5056249;28;20391;-70
2022/05/31 13:27:50;;;;;;;1.13;1.05;;;;;;;;;;5055710;28;20227;-70
2022/05/31 13:30:18;;;;;;;3.45;1.20;;;;;;;;;;5055845;28;20413;-70
2022/05/31 13:32:44;;;;;;;3.35;1.20;;;;;;;;;;5056131;28;20226;-69
2022/05/31 13:35:13;;;;;;;2.17;1.00;;;;;;;;;;5056230;28;20209;-70
2022/05/31 13:37:51;;;;;;;2.05;1.20;;;;;;;;;;5055860;28;20271;-70
2022/05/31 13:40:18;;;;;;;4.05;0.70;;;;;;;;;;5055741;28;20208;-70
2022/05/31 13:42:46;;;;;;;3.55;0.90;;;;;;;;;;5055859;28;20251;-70
2022/05/31 13:45:16;;;;;;;1.55;0.90;;;;;;;;;;5055858;28;20571;-70
2022/05/31 13:47:47;;;;;;;3.85;1.00;;;;;;;;;;5055585;28;20213;-71
2022/05/31 13:50:17;;;;;;;7.47;1.70;;;;;;;;;;5055718;28;20212;-70
2022/05/31 13:52:43;;;;;;;4.00;1.10;;;;;;;;;;5055883;28;20204;-70
2022/05/31 13:55:12;;;;;;;1.25;0.95;;;;;;;;;;5055470;28;20208;-70
2022/05/31 13:57:48;;;;;;;6.03;0.95;;;;;;;;;;5053086;28;20410;-70
2022/05/31 14:00:20;;;;;;;2.33;0.70;;;;;;;;;;5035647;28;20208;-70
2022/05/31 14:02:52;;;;;;;4.05;1.13;;;;;;;;;;5035816;28;20225;-70
2022/05/31 14:05:22;;;;;;;2.28;1.02;;;;;;;;;;5035786;28;20239;-70
2022/05/31 14:07:49;;;;;;;0.98;0.90;;;;;;;;;;5036247;28;20209;-70
2022/05/31 14:10:17;;;;;;;1.75;0.80;;;;;;;;;;5039367;28;20464;-70
2022/05/31 14:12:44;;;;;;;1.35;0.82;;;;;;;;;;5039612;28;20205;-69
2022/05/31 14:15:21;;;;;;;2.22;1.17;;;;;;;;;;5039116;28;20488;-70
2022/05/31 14:17:48;;;;;;;2.42;0.98;;;;;;;;;;5037924;28;20491;-69
2022/05/31 14:20:20;;;;;;;7.18;1.17;;;;;;;;;;5039118;28;20233;-69
2022/05/31 14:22:46;;;;;;;4.80;0.90;;;;;;;;;;5039101;28;20229;-70
2022/05/31 14:25:16;;;;;;;1.25;1.00;;;;;;;;;;5039209;28;20209;-70
2022/05/31 14:27:42;;;;;;;2.92;0.90;;;;;;;;;;5038431;28;20209;-70
2022/05/31 14:30:09;;;;;;;2.42;1.00;;;;;;;;;;5038569;28;20220;-70
2022/05/31 14:32:43;;;;;;;1.17;1.08;;;;;;;;;;5038831;28;20232;-69
2022/05/31 14:35:11;;;;;;;3.28;1.02;;;;;;;;;;5039020;28;20216;-69
2022/05/31 14:37:41;;;;;;;2.38;1.00;;;;;;;;;;5038593;28;20209;-69
2022/05/31 14:40:10;;;;;;;1.95;1.00;;;;;;;;;;5038677;28;20481;-69
2022/05/31 14:42:37;;;;;;;4.43;0.93;;;;;;;;;;5038894;28;20235;-69
2022/05/31 14:45:05;;;;;;;1.20;0.80;;;;;;;;;;5038793;28;20216;-69
2022/05/31 14:47:34;;;;;;;1.00;0.90;;;;;;;;;;5038294;28;20213;-69
2022/05/31 14:50:12;;;;;;;4.93;1.00;;;;;;;;;;5038824;28;20209;-69
2022/05/31 14:52:46;;;;;;;2.65;1.00;;;;;;;;;;5039154;28;20205;-69
2022/05/31 14:55:14;;;;;;;3.55;0.95;;;;;;;;;;5042660;28;20204;-69
2022/05/31 15:00:25;;;;;;;2.05;0.95;;;;;;;;;;5058345;28;20490;-69
2022/05/31 15:02:52;;;;;;;4.55;1.05;;;;;;;;;;5058795;28;20224;-69
2022/05/31 15:05:24;;;;;;;2.80;0.93;;;;;;;;;;5058625;28;20278;-69
2022/05/31 15:07:55;;;;;;;1.00;0.90;;;;;;;;;;5058116;28;20228;-69
2022/05/31 15:10:31;;;;;;;3.92;1.05;;;;;;;;;;5058459;28;20201;-70
2022/05/31 15:21:15;;;;;;;2.83;1.00;;;;;;;;;;5058236;28;20211;-69
2022/05/31 15:23:42;;;;;;;2.13;1.05;;;;;;;;;;5058175;28;20204;-69
2022/05/31 15:26:09;;;;;;;2.50;1.08;;;;;;;;;;5057629;28;20554;-69
2022/05/31 15:28:36;;;;;;;5.20;1.00;;;;;;;;;;5057419;28;20201;-69
2022/05/31 15:31:04;;;;;;;0.90;0.90;;;;;;;;;;5057778;28;20213;-69
2022/05/31 15:33:30;;;;;;;2.10;0.98;;;;;;;;;;5057860;28;20215;-69
2022/05/31 15:35:56;;;;;;;3.67;0.80;;;;;;;;;;5057728;28;20209;-69
2022/05/31 15:38:26;;;;;;;1.13;1.00;;;;;;;;;;5057441;28;20201;-69